createdAt,value
2022-10-22T00:02:21.495Z,15.50
2022-10-22T00:04:49.346Z,15.50
2022-10-22T00:07:20.369Z,15.50
2022-10-22T00:09:47.255Z,15.50
2022-10-22T00:12:15.663Z,15.50
2022-10-22T00:14:43.482Z,15.50
2022-10-22T00:17:11.573Z,15.50
2022-10-22T00:19:39.513Z,15.50
2022-10-22T00:22:06.929Z,15.50
2022-10-22T00:24:35.940Z,15.50
2022-10-22T00:27:03.641Z,15.50
2022-10-22T00:29:31.326Z,15.50
2022-10-22T00:31:58.407Z,15.50
2022-10-22T00:34:25.474Z,15.50
2022-10-22T00:36:52.717Z,15.50
2022-10-22T00:39:23.113Z,15.40
2022-10-22T00:41:52.289Z,15.50
2022-10-22T00:44:56.825Z,15.40
2022-10-22T00:47:25.555Z,15.40
2022-10-22T00:49:53.879Z,15.40
2022-10-22T00:52:21.197Z,15.40
2022-10-22T00:54:48.688Z,15.40
2022-10-22T00:57:17.851Z,15.30
2022-10-22T00:59:44.744Z,15.30
2022-10-22T01:02:11.413Z,15.30
2022-10-22T01:04:38.210Z,15.30
2022-10-22T01:07:05.748Z,15.30
2022-10-22T01:09:54.230Z,15.20
2022-10-22T01:12:35.587Z,15.20
2022-10-22T01:15:23.762Z,15.20
2022-10-22T01:18:14.714Z,15.20
2022-10-22T01:21:05.342Z,15.20
2022-10-22T01:24:07.197Z,15.10
2022-10-22T01:26:49.081Z,15.10
2022-10-22T01:29:22.265Z,15.10
2022-10-22T01:31:56.603Z,15.10
2022-10-22T01:34:24.986Z,15.10
2022-10-22T01:36:53.878Z,15.10
2022-10-22T01:39:21.240Z,15.10
2022-10-22T01:41:47.835Z,15.10
2022-10-22T01:44:28.743Z,15.10
2022-10-22T01:47:04.210Z,15.10
2022-10-22T01:49:47.861Z,15.10
2022-10-22T01:52:41.966Z,15.10
2022-10-22T01:55:35.437Z,15.10
2022-10-22T01:58:40.732Z,15.00
2022-10-22T02:01:17.448Z,15.00
2022-10-22T02:03:55.569Z,15.00
2022-10-22T02:06:25.662Z,15.00
2022-10-22T02:08:54.523Z,15.00
2022-10-22T02:11:21.539Z,15.00
2022-10-22T02:13:58.588Z,15.00
2022-10-22T02:16:31.888Z,15.10
2022-10-22T02:19:03.190Z,15.10
2022-10-22T02:21:30.693Z,15.00
2022-10-22T02:23:57.582Z,15.10
2022-10-22T02:26:58.754Z,15.10
2022-10-22T02:29:34.661Z,15.10
2022-10-22T02:32:03.446Z,15.00
2022-10-22T02:34:32.384Z,15.10
2022-10-22T02:37:01.149Z,15.10
2022-10-22T02:39:29.881Z,15.00
2022-10-22T02:41:58.022Z,15.10
2022-10-22T02:44:25.046Z,15.00
2022-10-22T02:46:52.644Z,15.10
2022-10-22T02:49:19.268Z,15.10
2022-10-22T02:51:46.081Z,15.10
2022-10-22T02:54:12.745Z,15.10
2022-10-22T02:56:39.924Z,15.10
2022-10-22T02:59:06.578Z,15.10
2022-10-22T03:01:33.435Z,15.10
2022-10-22T03:04:00.150Z,15.00
2022-10-22T03:06:27.066Z,15.00
2022-10-22T03:08:53.947Z,15.00
2022-10-22T03:11:20.903Z,15.00
2022-10-22T03:13:47.553Z,15.00
2022-10-22T03:16:14.285Z,15.00
2022-10-22T03:18:40.946Z,15.00
2022-10-22T03:21:24.545Z,15.00
2022-10-22T03:23:52.117Z,15.00
2022-10-22T03:26:19.134Z,15.00
2022-10-22T03:28:47.788Z,15.00
2022-10-22T03:31:14.881Z,15.00
2022-10-22T03:33:41.483Z,14.90
2022-10-22T03:36:09.335Z,14.90
2022-10-22T03:38:38.809Z,14.90
2022-10-22T03:41:06.313Z,14.90
2022-10-22T03:43:35.439Z,14.90
2022-10-22T03:46:02.063Z,14.90
2022-10-22T03:48:28.814Z,14.90
2022-10-22T03:50:55.769Z,15.00
2022-10-22T03:53:22.537Z,15.00
2022-10-22T03:55:49.312Z,14.90
2022-10-22T03:58:16.228Z,15.00
2022-10-22T04:00:43.088Z,15.00
2022-10-22T04:03:09.797Z,15.00
2022-10-22T04:05:36.507Z,15.00
2022-10-22T04:08:03.239Z,15.00
2022-10-22T04:10:30.061Z,15.00
2022-10-22T04:12:57.097Z,15.00
2022-10-22T04:15:26.747Z,14.90
2022-10-22T04:17:53.562Z,14.90
2022-10-22T04:20:20.426Z,14.90
2022-10-22T04:22:47.040Z,14.90
2022-10-22T04:25:13.617Z,14.80
2022-10-22T04:27:40.600Z,14.80
2022-10-22T04:30:08.110Z,14.80
2022-10-22T04:32:34.827Z,14.80
2022-10-22T04:35:01.626Z,14.80
2022-10-22T04:37:28.309Z,14.70
2022-10-22T04:39:57.953Z,14.70
2022-10-22T04:42:25.210Z,14.70
2022-10-22T04:44:51.934Z,14.70
2022-10-22T04:47:19.275Z,14.70
2022-10-22T04:49:45.863Z,14.70
2022-10-22T04:52:12.699Z,14.70
2022-10-22T04:54:39.376Z,14.70
2022-10-22T04:57:06.224Z,14.80
2022-10-22T04:59:32.893Z,14.70
2022-10-22T05:01:59.682Z,14.70
2022-10-22T05:04:26.396Z,14.80
2022-10-22T05:06:53.375Z,14.80
2022-10-22T05:09:20.777Z,14.80
2022-10-22T05:11:49.873Z,14.80
2022-10-22T05:14:18.947Z,14.80
2022-10-22T05:16:48.414Z,14.80
2022-10-22T05:19:24.007Z,14.90
2022-10-22T05:21:52.700Z,14.90
2022-10-22T05:24:19.366Z,14.90
2022-10-22T05:26:48.285Z,14.90
2022-10-22T05:29:15.162Z,14.90
2022-10-22T05:31:41.861Z,14.90
2022-10-22T05:34:08.806Z,14.90
2022-10-22T05:36:35.466Z,14.90
2022-10-22T05:39:02.285Z,14.90
2022-10-22T05:41:29.858Z,14.80
2022-10-22T05:43:58.820Z,14.80
2022-10-22T05:46:28.299Z,14.80
2022-10-22T05:48:57.463Z,14.80
2022-10-22T05:51:25.342Z,14.70
2022-10-22T05:53:57.505Z,14.70
2022-10-22T05:56:25.795Z,14.60
2022-10-22T05:58:52.790Z,14.60
2022-10-22T06:01:39.813Z,14.50
2022-10-22T06:04:10.610Z,14.50
2022-10-22T06:06:49.999Z,14.40
2022-10-22T06:09:28.391Z,14.40
2022-10-22T06:11:56.390Z,14.30
2022-10-22T06:14:23.870Z,14.30
2022-10-22T06:16:51.543Z,14.20
2022-10-22T06:19:20.810Z,14.20
2022-10-22T06:21:48.213Z,14.20
2022-10-22T06:24:15.469Z,14.10
2022-10-22T06:26:42.457Z,14.10
2022-10-22T06:29:09.456Z,14.10
2022-10-22T06:31:39.145Z,14.00
2022-10-22T06:34:08.185Z,14.00
2022-10-22T06:36:35.177Z,14.00
2022-10-22T06:39:02.237Z,14.00
2022-10-22T06:41:29.780Z,13.90
2022-10-22T06:43:57.456Z,13.90
2022-10-22T06:46:25.712Z,13.90
2022-10-22T06:48:55.075Z,13.90
2022-10-22T06:51:22.256Z,13.90
2022-10-22T06:53:49.365Z,13.90
2022-10-22T06:56:19.040Z,13.90
2022-10-22T06:58:52.693Z,13.90
2022-10-22T07:01:22.590Z,13.90
2022-10-22T07:03:51.800Z,13.90
2022-10-22T07:06:19.107Z,13.90
2022-10-22T07:08:46.027Z,13.90
2022-10-22T07:11:15.498Z,13.90
2022-10-22T07:13:42.285Z,13.90
2022-10-22T07:16:10.122Z,13.90
2022-10-22T07:18:39.082Z,14.00
2022-10-22T07:21:07.061Z,14.00
2022-10-22T07:23:34.581Z,14.00
2022-10-22T07:26:06.545Z,14.00
2022-10-22T07:28:38.081Z,14.00
2022-10-22T07:31:04.715Z,14.00
2022-10-22T07:33:31.787Z,14.00
2022-10-22T07:36:04.845Z,14.10
2022-10-22T07:38:31.836Z,14.10
2022-10-22T07:40:59.226Z,14.10
2022-10-22T07:43:26.494Z,14.30
2022-10-22T07:45:55.004Z,14.40
2022-10-22T07:48:22.639Z,14.50
2022-10-22T07:50:50.701Z,14.70
2022-10-22T07:53:17.589Z,14.80
2022-10-22T07:55:44.465Z,14.90
2022-10-22T07:58:11.063Z,15.10
2022-10-22T08:00:38.407Z,15.30
2022-10-22T08:03:05.025Z,15.40
2022-10-22T08:05:31.922Z,15.60
2022-10-22T08:07:58.909Z,15.70
2022-10-22T08:10:26.366Z,15.90
2022-10-22T08:12:52.978Z,16.00
2022-10-22T08:15:19.800Z,16.10
2022-10-22T08:17:46.448Z,16.30
2022-10-22T08:20:13.790Z,16.40
2022-10-22T08:22:40.481Z,16.60
2022-10-22T08:25:07.756Z,16.80
2022-10-22T08:27:34.460Z,16.90
2022-10-22T08:30:01.287Z,17.00
2022-10-22T08:32:28.203Z,17.10
2022-10-22T08:34:54.908Z,17.20
2022-10-22T08:37:21.754Z,17.30
2022-10-22T08:39:48.439Z,17.40
2022-10-22T08:42:33.322Z,17.60
2022-10-22T08:45:25.169Z,18.10
2022-10-22T08:48:10.903Z,18.90
2022-10-22T08:50:45.455Z,19.90
2022-10-22T08:53:38.537Z,21.00
2022-10-22T08:56:05.740Z,22.30
2022-10-22T08:58:40.175Z,23.40
2022-10-22T09:01:14.152Z,24.60
2022-10-22T09:03:58.826Z,25.60
2022-10-22T09:06:29.495Z,26.50
2022-10-22T09:08:58.623Z,27.50
2022-10-22T09:11:25.930Z,28.30
2022-10-22T09:13:54.937Z,28.90
2022-10-22T09:16:24.433Z,29.50
2022-10-22T09:19:16.201Z,29.80
2022-10-22T09:21:54.862Z,30.10
2022-10-22T09:24:44.009Z,30.20
2022-10-22T09:27:17.372Z,30.30
2022-10-22T09:29:45.227Z,30.50
2022-10-22T09:32:12.957Z,30.60
2022-10-22T09:34:39.753Z,30.50
2022-10-22T09:37:08.932Z,30.20
2022-10-22T09:39:41.830Z,29.80
2022-10-22T09:42:09.981Z,29.40
2022-10-22T09:44:37.781Z,29.20
2022-10-22T09:47:32.715Z,28.80
2022-10-22T09:50:20.796Z,28.30
2022-10-22T09:53:21.980Z,27.70
2022-10-22T09:55:57.235Z,27.00
2022-10-22T09:58:24.292Z,26.40
2022-10-22T10:00:57.018Z,25.80
2022-10-22T10:03:27.399Z,25.30
2022-10-22T10:06:01.378Z,24.90
2022-10-22T10:08:32.046Z,24.50
2022-10-22T10:11:01.204Z,24.10
2022-10-22T10:13:51.333Z,23.70
2022-10-22T10:16:31.021Z,23.30
2022-10-22T10:19:38.908Z,23.00
2022-10-22T10:22:45.946Z,22.70
2022-10-22T10:25:46.109Z,22.40
2022-10-22T10:28:50.978Z,22.20
2022-10-22T10:31:31.224Z,22.00
2022-10-22T10:34:10.003Z,21.90
2022-10-22T10:36:58.497Z,21.70
2022-10-22T10:39:54.910Z,21.60
2022-10-22T10:42:41.161Z,21.50
2022-10-22T10:45:14.454Z,21.40
2022-10-22T10:47:55.876Z,21.30
2022-10-22T10:50:56.918Z,21.30
2022-10-22T10:53:38.550Z,21.20
2022-10-22T10:56:38.380Z,21.00
2022-10-22T10:59:17.453Z,21.10
2022-10-22T11:01:55.401Z,20.90
2022-10-22T11:04:39.652Z,20.90
2022-10-22T11:07:30.069Z,20.90
2022-10-22T11:10:06.430Z,20.90
2022-10-22T11:12:44.570Z,20.90
2022-10-22T11:15:29.378Z,20.90
2022-10-22T11:18:03.062Z,20.90
2022-10-22T11:20:45.652Z,20.90
2022-10-22T11:23:30.376Z,20.90
2022-10-22T11:25:58.016Z,20.90
2022-10-22T11:28:31.930Z,20.90
2022-10-22T11:31:03.888Z,20.90
2022-10-22T11:33:43.508Z,20.90
2022-10-22T11:36:12.478Z,20.90
2022-10-22T11:38:39.292Z,20.80
2022-10-22T11:41:15.793Z,20.80
2022-10-22T11:43:56.059Z,20.70
2022-10-22T11:46:22.614Z,20.80
2022-10-22T11:49:06.488Z,20.70
2022-10-22T11:51:36.057Z,20.80
2022-10-22T11:54:42.302Z,20.90
2022-10-22T11:57:14.860Z,20.80
2022-10-22T11:59:47.627Z,20.90
2022-10-22T12:02:30.800Z,20.90
2022-10-22T12:05:22.158Z,20.90
2022-10-22T12:07:57.246Z,21.10
2022-10-22T12:10:33.838Z,21.10
2022-10-22T12:13:31.184Z,21.20
2022-10-22T12:16:01.768Z,21.40
2022-10-22T12:18:39.190Z,21.70
2022-10-22T12:21:06.145Z,22.00
2022-10-22T12:23:35.473Z,22.40
2022-10-22T12:26:04.513Z,22.60
2022-10-22T12:28:39.400Z,22.80
2022-10-22T12:31:06.819Z,22.90
2022-10-22T12:33:33.431Z,22.90
2022-10-22T12:36:04.086Z,22.80
2022-10-22T12:38:30.990Z,22.80
2022-10-22T12:40:57.868Z,22.60
2022-10-22T12:43:28.808Z,22.50
2022-10-22T12:45:57.789Z,22.30
2022-10-22T12:48:29.233Z,22.10
2022-10-22T12:50:59.462Z,22.00
2022-10-22T12:53:31.715Z,21.90
2022-10-22T12:56:07.246Z,21.70
2022-10-22T12:58:51.538Z,21.70
2022-10-22T13:01:18.835Z,21.60
2022-10-22T13:03:51.355Z,21.60
2022-10-22T13:06:22.379Z,21.60
2022-10-22T13:09:14.632Z,21.70
2022-10-22T13:12:01.626Z,22.00
2022-10-22T13:14:31.615Z,22.10
2022-10-22T13:17:38.757Z,22.20
2022-10-22T13:20:20.763Z,22.40
2022-10-22T13:22:56.106Z,22.70
2022-10-22T13:25:40.661Z,23.00
2022-10-22T13:28:07.465Z,23.30
2022-10-22T13:30:36.396Z,23.50
2022-10-22T13:33:19.938Z,23.80
2022-10-22T13:35:46.596Z,24.00
2022-10-22T13:38:18.417Z,24.20
2022-10-22T13:40:45.421Z,24.50
2022-10-22T13:43:12.190Z,24.60
2022-10-22T13:45:39.567Z,24.60
2022-10-22T13:48:09.521Z,24.60
2022-10-22T13:50:36.106Z,24.40
2022-10-22T13:53:02.885Z,24.30
2022-10-22T13:55:30.804Z,24.20
2022-10-22T13:58:10.569Z,24.10
2022-10-22T14:00:38.792Z,24.00
2022-10-22T14:03:06.375Z,23.90
2022-10-22T14:05:33.138Z,23.80
2022-10-22T14:08:00.726Z,23.70
2022-10-22T14:10:28.404Z,23.60
2022-10-22T14:12:55.023Z,23.40
2022-10-22T14:15:24.421Z,23.40
2022-10-22T14:17:58.825Z,23.30
2022-10-22T14:20:28.896Z,23.30
2022-10-22T14:22:56.310Z,23.30
2022-10-22T14:25:25.455Z,23.30
2022-10-22T14:27:52.348Z,23.30
2022-10-22T14:30:27.466Z,23.40
2022-10-22T14:32:54.180Z,23.40
2022-10-22T14:35:22.788Z,23.30
2022-10-22T14:37:49.969Z,23.30
2022-10-22T14:40:19.612Z,23.30
2022-10-22T14:42:48.409Z,23.20
2022-10-22T14:45:19.994Z,23.20
2022-10-22T14:47:46.886Z,23.10
2022-10-22T14:50:14.416Z,23.00
2022-10-22T14:52:43.614Z,22.90
2022-10-22T14:55:11.562Z,22.80
2022-10-22T14:57:39.672Z,22.70
2022-10-22T15:00:11.142Z,22.60
2022-10-22T15:02:37.926Z,22.50
2022-10-22T15:05:05.454Z,22.50
2022-10-22T15:07:32.430Z,22.40
2022-10-22T15:09:59.116Z,22.40
2022-10-22T15:12:25.975Z,22.30
2022-10-22T15:14:52.697Z,22.30
2022-10-22T15:17:19.395Z,22.20
2022-10-22T15:19:46.279Z,22.10
2022-10-22T15:22:13.769Z,22.10
2022-10-22T15:24:44.641Z,22.10
2022-10-22T15:27:13.866Z,22.00
2022-10-22T15:29:41.893Z,22.00
2022-10-22T15:32:10.962Z,21.90
2022-10-22T15:34:39.409Z,21.90
2022-10-22T15:37:08.733Z,21.80
2022-10-22T15:39:35.709Z,21.70
2022-10-22T15:44:58.188Z,21.60
2022-10-22T15:47:29.622Z,21.50
2022-10-22T15:49:56.578Z,21.50
2022-10-22T15:52:23.193Z,21.50
2022-10-22T15:54:50.082Z,21.30
2022-10-22T15:57:16.763Z,21.20
2022-10-22T15:59:43.785Z,21.10
2022-10-22T16:02:11.697Z,21.00
2022-10-22T16:04:39.058Z,20.90
2022-10-22T16:07:05.856Z,20.80
2022-10-22T16:09:32.697Z,20.70
2022-10-22T16:11:59.347Z,20.60
2022-10-22T16:14:26.179Z,20.50
2022-10-22T16:16:55.493Z,20.40
2022-10-22T16:19:23.697Z,20.20
2022-10-22T16:21:52.686Z,20.10
2022-10-22T16:24:19.820Z,20.00
2022-10-22T16:26:47.394Z,19.90
2022-10-22T16:29:14.195Z,19.70
2022-10-22T16:31:43.603Z,19.70
2022-10-22T16:34:10.317Z,19.50
2022-10-22T16:36:38.302Z,19.40
2022-10-22T16:39:06.561Z,19.30
2022-10-22T16:41:35.359Z,19.20
2022-10-22T16:44:05.792Z,19.10
2022-10-22T16:46:33.429Z,19.00
2022-10-22T16:49:00.310Z,18.90
2022-10-22T16:51:28.386Z,18.80
2022-10-22T16:53:56.544Z,18.70
2022-10-22T16:56:24.000Z,18.60
2022-10-22T16:58:53.329Z,18.60
2022-10-22T17:01:22.043Z,18.50
2022-10-22T17:03:49.076Z,18.40
2022-10-22T17:06:15.773Z,18.30
2022-10-22T17:08:42.836Z,18.20
2022-10-22T17:11:17.554Z,18.10
2022-10-22T17:13:46.441Z,18.10
2022-10-22T17:16:15.474Z,18.00
2022-10-22T17:18:43.752Z,17.90
2022-10-22T17:21:11.312Z,17.90
2022-10-22T17:23:38.488Z,17.80
2022-10-22T17:26:13.215Z,17.70
2022-10-22T17:28:40.117Z,17.70
2022-10-22T17:31:10.750Z,17.60
2022-10-22T17:33:37.744Z,17.60
2022-10-22T17:36:11.410Z,17.50
2022-10-22T17:38:38.834Z,17.50
2022-10-22T17:41:07.466Z,17.40
2022-10-22T17:43:38.066Z,17.40
2022-10-22T17:46:07.491Z,17.30
2022-10-22T17:48:34.703Z,17.20
2022-10-22T17:51:05.165Z,17.20
2022-10-22T17:53:31.810Z,17.10
2022-10-22T17:56:00.758Z,17.10
2022-10-22T17:58:30.833Z,17.00
2022-10-22T18:00:58.494Z,17.00
2022-10-22T18:03:27.696Z,16.90
2022-10-22T18:05:55.366Z,16.90
2022-10-22T18:08:25.481Z,16.80
2022-10-22T18:10:52.278Z,16.80
2022-10-22T18:13:18.866Z,16.70
2022-10-22T18:15:45.589Z,16.70
2022-10-22T18:18:12.912Z,16.60
2022-10-22T18:20:39.569Z,16.60
2022-10-22T18:23:06.477Z,16.50
2022-10-22T18:25:33.145Z,16.50
2022-10-22T18:28:00.481Z,16.40
2022-10-22T18:30:27.130Z,16.40
2022-10-22T18:32:54.037Z,16.30
2022-10-22T18:35:20.664Z,16.30
2022-10-22T18:37:47.476Z,16.20
2022-10-22T18:40:14.826Z,16.20
2022-10-22T18:42:41.942Z,16.10
2022-10-22T18:45:10.495Z,16.10
2022-10-22T18:47:42.337Z,16.00
2022-10-22T18:50:09.547Z,16.00
2022-10-22T18:52:36.429Z,16.00
2022-10-22T18:55:03.264Z,15.90
2022-10-22T18:57:30.009Z,15.90
2022-10-22T18:59:59.459Z,15.90
2022-10-22T19:02:26.665Z,15.80
2022-10-22T19:04:53.492Z,15.70
2022-10-22T19:07:20.133Z,15.70
2022-10-22T19:09:46.889Z,15.70
2022-10-22T19:12:15.121Z,15.60
2022-10-22T19:14:42.613Z,15.60
2022-10-22T19:17:09.935Z,15.60
2022-10-22T19:19:36.773Z,15.60
2022-10-22T19:22:04.549Z,15.50
2022-10-22T19:24:31.312Z,15.50
2022-10-22T19:26:57.945Z,15.40
2022-10-22T19:29:25.302Z,15.40
2022-10-22T19:31:52.214Z,15.30
2022-10-22T19:34:19.882Z,15.30
2022-10-22T19:36:46.967Z,15.30
2022-10-22T19:39:16.380Z,15.30
2022-10-22T19:41:43.542Z,15.20
2022-10-22T19:44:10.581Z,15.20
2022-10-22T19:46:38.190Z,15.10
2022-10-22T19:49:05.537Z,15.10
2022-10-22T19:51:36.023Z,15.10
2022-10-22T19:54:05.886Z,15.10
2022-10-22T19:56:33.926Z,15.00
2022-10-22T19:59:00.661Z,15.00
2022-10-22T20:01:27.952Z,14.90
2022-10-22T20:03:54.861Z,14.90
2022-10-22T20:06:22.414Z,14.90
2022-10-22T20:08:51.132Z,14.80
2022-10-22T20:11:24.440Z,14.80
2022-10-22T20:13:52.373Z,14.80
2022-10-22T20:16:24.820Z,14.70
2022-10-22T20:18:52.464Z,14.80
2022-10-22T20:21:20.093Z,14.70
2022-10-22T20:23:48.252Z,14.70
2022-10-22T20:26:14.941Z,14.70
2022-10-22T20:28:48.165Z,14.60
2022-10-22T20:31:17.438Z,14.60
2022-10-22T20:33:44.047Z,14.60
2022-10-22T20:36:16.991Z,14.60
2022-10-22T20:38:43.835Z,14.50
2022-10-22T20:41:13.742Z,14.50
2022-10-22T20:43:42.846Z,14.50
2022-10-22T20:46:29.221Z,14.50
2022-10-22T20:49:04.746Z,14.50
2022-10-22T20:51:32.019Z,14.40
2022-10-22T20:53:58.935Z,14.40
2022-10-22T20:56:26.732Z,14.40
2022-10-22T20:59:04.264Z,14.40
2022-10-22T21:01:49.120Z,14.30
2022-10-22T21:04:16.985Z,14.40
2022-10-22T21:06:43.945Z,14.30
2022-10-22T21:09:13.417Z,14.30
2022-10-22T21:11:41.856Z,14.30
2022-10-22T21:14:10.460Z,14.30
2022-10-22T21:16:41.770Z,14.30
2022-10-22T21:19:08.500Z,14.30
2022-10-22T21:21:35.149Z,14.30
2022-10-22T21:24:01.977Z,14.30
2022-10-22T21:26:28.729Z,14.30
2022-10-22T21:28:55.488Z,14.30
2022-10-22T21:31:24.309Z,14.30
2022-10-22T21:33:51.493Z,14.30
2022-10-22T21:36:22.651Z,14.20
2022-10-22T21:38:53.728Z,14.20
2022-10-22T21:41:23.399Z,14.20
2022-10-22T21:43:50.935Z,14.20
2022-10-22T21:46:23.305Z,14.20
2022-10-22T21:48:58.513Z,14.20
2022-10-22T21:51:26.252Z,14.20
2022-10-22T21:53:52.929Z,14.20
2022-10-22T21:56:22.662Z,14.20
2022-10-22T21:58:49.661Z,14.10
2022-10-22T22:01:16.815Z,14.10
2022-10-22T22:03:49.293Z,14.10
2022-10-22T22:06:21.161Z,14.00
2022-10-22T22:08:49.798Z,14.00
2022-10-22T22:11:19.562Z,14.00
2022-10-22T22:13:48.699Z,13.90
2022-10-22T22:16:21.236Z,14.00
2022-10-22T22:18:50.925Z,13.90
2022-10-22T22:21:20.020Z,13.90
2022-10-22T22:23:48.218Z,13.80
2022-10-22T22:26:17.065Z,13.90
2022-10-22T22:28:43.808Z,13.80
2022-10-22T22:31:16.549Z,13.80
2022-10-22T22:33:43.870Z,13.80
2022-10-22T22:36:11.265Z,13.80
2022-10-22T22:38:38.277Z,13.70
2022-10-22T22:41:06.265Z,13.70
2022-10-22T22:43:33.706Z,13.70
2022-10-22T22:46:04.550Z,13.60
2022-10-22T22:48:32.343Z,13.60
2022-10-22T22:51:02.302Z,13.70
2022-10-22T22:53:29.704Z,13.60
2022-10-22T22:56:13.308Z,13.60
2022-10-22T22:58:40.640Z,13.60
2022-10-22T23:01:09.252Z,13.60
2022-10-22T23:03:36.110Z,13.60
2022-10-22T23:06:02.749Z,13.60
2022-10-22T23:08:29.741Z,13.60
2022-10-22T23:11:05.969Z,13.60
2022-10-22T23:13:33.735Z,13.70
2022-10-22T23:16:04.200Z,13.70
2022-10-22T23:18:30.965Z,13.70
2022-10-22T23:20:57.853Z,13.70
2022-10-22T23:23:24.575Z,13.70
2022-10-22T23:25:54.819Z,13.70
2022-10-22T23:28:23.961Z,13.70
2022-10-22T23:30:50.761Z,13.70
2022-10-22T23:33:19.255Z,13.70
2022-10-22T23:35:46.181Z,13.70
2022-10-22T23:38:13.015Z,13.70
2022-10-22T23:40:39.728Z,13.70
2022-10-22T23:43:06.348Z,13.70
2022-10-22T23:45:36.488Z,13.70
2022-10-22T23:48:03.225Z,13.70
2022-10-22T23:50:29.961Z,13.70
2022-10-22T23:52:56.815Z,13.70
2022-10-22T23:55:23.504Z,13.60
2022-10-22T23:57:50.243Z,13.60
